createdAt,value
2018-01-10T00:00:21.287Z,48.42
2018-01-10T00:02:49.611Z,40.50
2018-01-10T00:05:17.912Z,45.95
2018-01-10T00:07:47.040Z,42.17
2018-01-10T00:10:15.394Z,39.92
2018-01-10T00:12:43.721Z,40.78
2018-01-10T00:15:12.174Z,41.08
2018-01-10T00:17:40.513Z,43.20
2018-01-10T00:20:08.867Z,44.00
2018-01-10T00:22:37.239Z,40.12
2018-01-10T00:25:05.708Z,42.15
2018-01-10T00:27:34.046Z,39.75
2018-01-10T00:30:03.177Z,42.45
2018-01-10T00:32:31.485Z,47.97
2018-01-10T00:34:59.928Z,38.35
2018-01-10T00:37:28.692Z,38.80
2018-01-10T00:39:57.853Z,43.72
2018-01-10T00:42:26.165Z,42.25
2018-01-10T00:44:55.269Z,43.10
2018-01-10T00:47:23.603Z,48.42
2018-01-10T00:49:52.077Z,40.97
2018-01-10T00:52:20.427Z,43.85
2018-01-10T00:54:48.859Z,42.40
2018-01-10T00:57:17.401Z,37.40
2018-01-10T00:59:47.184Z,42.08
2018-01-10T01:02:15.693Z,42.45
2018-01-10T01:04:44.079Z,38.50
2018-01-10T01:07:12.542Z,44.58
2018-01-10T01:09:40.931Z,40.50
2018-01-10T01:12:09.357Z,43.25
2018-01-10T01:14:37.940Z,42.15
2018-01-10T01:17:06.322Z,41.28
2018-01-10T01:19:35.527Z,38.40
2018-01-10T01:22:04.308Z,44.88
2018-01-10T01:24:32.791Z,40.40
2018-01-10T01:27:02.090Z,38.33
2018-01-10T01:29:30.573Z,43.22
2018-01-10T01:31:59.032Z,43.72
2018-01-10T01:34:27.434Z,45.65
2018-01-10T01:36:55.879Z,43.45
2018-01-10T01:39:24.217Z,46.20
2018-01-10T01:41:53.362Z,48.40
2018-01-10T01:44:22.102Z,55.55
2018-01-10T01:46:51.196Z,40.38
2018-01-10T01:49:20.386Z,46.90
2018-01-10T01:51:48.781Z,49.83
2018-01-10T01:54:17.957Z,41.78
2018-01-10T01:56:46.301Z,42.38
2018-01-10T01:59:14.701Z,40.97
2018-01-10T02:01:43.090Z,47.22
2018-01-10T02:04:11.479Z,44.95
2018-01-10T02:06:40.799Z,44.90
2018-01-10T02:09:09.194Z,42.45
2018-01-10T02:11:37.529Z,44.33
2018-01-10T02:14:06.007Z,48.53
2018-01-10T02:16:34.411Z,48.17
2018-01-10T02:19:03.546Z,49.72
2018-01-10T02:21:31.967Z,44.83
2018-01-10T02:24:00.342Z,54.47
2018-01-10T02:26:28.658Z,44.80
2018-01-10T02:28:57.431Z,40.80
2018-01-10T02:31:26.536Z,57.65
2018-01-10T02:33:55.708Z,51.42
2018-01-10T02:36:24.078Z,41.35
2018-01-10T02:38:52.368Z,40.67
2018-01-10T02:41:20.729Z,42.65
2018-01-10T02:43:49.129Z,47.72
2018-01-10T02:46:17.530Z,48.97
2018-01-10T02:48:46.647Z,47.17
2018-01-10T02:51:15.511Z,46.25
2018-01-10T02:53:43.889Z,47.75
2018-01-10T02:56:13.061Z,65.20
2018-01-10T02:58:41.550Z,50.20
2018-01-10T03:01:09.977Z,45.30
2018-01-10T03:03:38.396Z,50.30
2018-01-10T03:06:06.816Z,45.08
2018-01-10T03:08:35.215Z,50.35
2018-01-10T03:11:03.536Z,42.17
2018-01-10T03:13:32.346Z,45.38
2018-01-10T03:16:00.743Z,51.85
2018-01-10T03:18:29.108Z,48.83
2018-01-10T03:20:57.606Z,44.95
2018-01-10T03:23:26.039Z,53.17
2018-01-10T03:25:54.415Z,52.33
2018-01-10T03:28:22.793Z,52.72
2018-01-10T03:30:51.974Z,49.83
2018-01-10T03:33:20.405Z,43.95
2018-01-10T03:35:48.884Z,49.85
2018-01-10T03:38:17.287Z,46.33
2018-01-10T03:40:46.562Z,47.90
2018-01-10T03:43:14.994Z,51.37
2018-01-10T03:45:43.368Z,54.83
2018-01-10T03:48:11.712Z,50.97
2018-01-10T03:50:40.080Z,48.90
2018-01-10T03:53:08.453Z,48.15
2018-01-10T03:55:36.831Z,53.35
2018-01-10T03:58:05.470Z,53.22
2018-01-10T04:00:33.906Z,57.33
2018-01-10T04:03:02.282Z,51.78
2018-01-10T04:05:30.621Z,52.22
2018-01-10T04:07:59.109Z,62.42
2018-01-10T04:10:27.431Z,52.95
2018-01-10T04:12:55.807Z,47.90
2018-01-10T04:15:24.201Z,47.38
2018-01-10T04:17:53.464Z,51.85
2018-01-10T04:20:22.599Z,61.63
2018-01-10T04:22:51.877Z,50.33
2018-01-10T04:25:20.359Z,48.97
2018-01-10T04:27:48.738Z,58.10
2018-01-10T04:30:17.221Z,46.92
2018-01-10T04:32:45.712Z,56.00
2018-01-10T04:35:14.180Z,50.55
2018-01-10T04:37:42.564Z,47.08
2018-01-10T04:40:10.943Z,47.83
2018-01-10T04:42:39.851Z,51.33
2018-01-10T04:45:08.259Z,58.10
2018-01-10T04:47:36.695Z,55.00
2018-01-10T04:50:05.172Z,46.83
2018-01-10T04:52:33.501Z,43.83
2018-01-10T04:55:01.941Z,46.40
2018-01-10T04:57:30.300Z,48.30
2018-01-10T04:59:58.695Z,58.30
2018-01-10T05:02:27.187Z,47.45
2018-01-10T05:04:56.133Z,52.92
2018-01-10T05:07:24.566Z,48.40
2018-01-10T05:09:53.004Z,51.95
2018-01-10T05:12:21.353Z,47.45
2018-01-10T05:14:49.673Z,48.05
2018-01-10T05:17:18.074Z,48.85
2018-01-10T05:19:46.431Z,54.03
2018-01-10T05:22:14.818Z,52.22
2018-01-10T05:24:43.312Z,43.75
2018-01-10T05:27:12.314Z,51.35
2018-01-10T05:29:40.666Z,52.60
2018-01-10T05:32:09.068Z,48.63
2018-01-10T05:34:37.954Z,47.72
2018-01-10T05:37:06.376Z,49.65
2018-01-10T05:39:34.917Z,51.15
2018-01-10T05:42:03.505Z,56.33
2018-01-10T05:44:31.982Z,57.75
2018-01-10T05:47:00.367Z,57.55
2018-01-10T05:49:29.192Z,50.28
2018-01-10T05:51:57.576Z,54.42
2018-01-10T05:54:25.946Z,58.90
2018-01-10T05:56:54.355Z,59.28
2018-01-10T05:59:22.954Z,53.72
2018-01-10T06:01:51.404Z,46.88
2018-01-10T06:04:19.856Z,59.13
2018-01-10T06:06:48.994Z,53.92
2018-01-10T06:09:17.413Z,51.47
2018-01-10T06:11:46.020Z,59.75
2018-01-10T06:14:15.199Z,57.92
2018-01-10T06:16:43.577Z,57.78
2018-01-10T06:19:11.959Z,53.85
2018-01-10T06:21:40.412Z,56.72
2018-01-10T06:24:08.893Z,55.05
2018-01-10T06:26:37.298Z,49.60
2018-01-10T06:29:05.658Z,56.40
2018-01-10T06:31:34.164Z,52.85
2018-01-10T06:34:02.653Z,60.70
2018-01-10T06:36:31.427Z,58.67
2018-01-10T06:38:59.913Z,57.97
2018-01-10T06:41:28.401Z,56.45
2018-01-10T06:43:56.813Z,53.20
2018-01-10T06:46:25.160Z,56.50
2018-01-10T06:48:53.541Z,51.35
2018-01-10T06:51:21.926Z,51.80
2018-01-10T06:53:50.295Z,59.30
2018-01-10T06:56:18.870Z,48.78
2018-01-10T06:58:47.208Z,55.15
2018-01-10T07:01:15.526Z,56.45
2018-01-10T07:03:44.724Z,51.22
2018-01-10T07:06:13.095Z,59.65
2018-01-10T07:08:41.407Z,53.83
2018-01-10T07:11:10.508Z,61.70
2018-01-10T07:13:39.604Z,68.05
2018-01-10T07:16:08.665Z,51.80
2018-01-10T07:18:37.304Z,63.50
2018-01-10T07:21:05.597Z,56.92
2018-01-10T07:23:33.898Z,51.63
2018-01-10T07:26:02.237Z,56.40
2018-01-10T07:28:30.565Z,57.42
2018-01-10T07:30:58.890Z,48.33
2018-01-10T07:33:27.204Z,57.85
2018-01-10T07:35:55.514Z,54.15
2018-01-10T07:38:24.183Z,60.10
2018-01-10T07:40:52.606Z,49.28
2018-01-10T07:43:21.701Z,55.63
2018-01-10T07:45:50.764Z,53.95
2018-01-10T07:48:19.098Z,61.37
2018-01-10T07:50:47.393Z,54.45
2018-01-10T07:53:15.720Z,53.30
2018-01-10T07:55:44.868Z,53.13
2018-01-10T07:58:13.196Z,58.22
2018-01-10T08:00:41.520Z,60.88
2018-01-10T08:03:09.969Z,54.80
2018-01-10T08:05:38.266Z,60.75
2018-01-10T08:08:06.565Z,53.65
2018-01-10T08:10:34.931Z,52.47
2018-01-10T08:13:03.282Z,58.53
2018-01-10T08:15:31.599Z,52.15
2018-01-10T08:17:59.959Z,54.55
2018-01-10T08:20:28.297Z,60.08
2018-01-10T08:22:56.644Z,53.83
2018-01-10T08:25:26.079Z,54.00
2018-01-10T08:27:54.413Z,55.92
2018-01-10T08:30:22.756Z,51.80
2018-01-10T08:32:51.081Z,61.67
2018-01-10T08:35:19.457Z,51.33
2018-01-10T08:37:47.827Z,51.63
2018-01-10T08:40:16.182Z,50.50
2018-01-10T08:42:44.504Z,55.73
2018-01-10T08:45:12.813Z,47.83
2018-01-10T08:47:42.398Z,57.53
2018-01-10T08:50:10.740Z,53.90
2018-01-10T08:52:39.111Z,47.10
2018-01-10T08:55:07.471Z,56.30
2018-01-10T08:57:35.777Z,51.10
2018-01-10T09:00:04.078Z,54.80
2018-01-10T09:02:32.410Z,52.53
2018-01-10T09:05:00.748Z,53.97
2018-01-10T09:07:29.079Z,52.00
2018-01-10T09:09:57.936Z,59.33
2018-01-10T09:12:26.281Z,50.20
2018-01-10T09:14:54.617Z,51.77
2018-01-10T09:17:23.472Z,52.37
2018-01-10T09:19:51.779Z,49.60
2018-01-10T09:22:20.102Z,48.47
2018-01-10T09:24:48.460Z,60.00
2018-01-10T09:27:16.803Z,59.60
2018-01-10T09:29:45.925Z,53.30
2018-01-10T09:32:14.334Z,53.97
2018-01-10T09:34:42.649Z,53.73
2018-01-10T09:37:11.744Z,51.87
2018-01-10T09:39:40.870Z,57.17
2018-01-10T09:42:09.192Z,53.53
2018-01-10T09:44:37.480Z,47.00
2018-01-10T09:47:05.835Z,57.63
2018-01-10T09:49:34.177Z,46.63
2018-01-10T09:52:02.504Z,52.67
2018-01-10T09:54:31.246Z,52.77
2018-01-10T09:56:59.582Z,56.17
2018-01-10T09:59:27.922Z,50.00
2018-01-10T10:01:56.386Z,49.67
2018-01-10T10:04:24.700Z,56.03
2018-01-10T10:06:53.000Z,64.50
2018-01-10T10:09:21.352Z,60.77
2018-01-10T10:11:49.701Z,58.40
2018-01-10T10:14:18.049Z,47.77
2018-01-10T10:16:46.738Z,50.03
2018-01-10T10:19:15.058Z,52.20
2018-01-10T10:21:43.392Z,60.00
2018-01-10T10:24:12.501Z,65.07
2018-01-10T10:26:41.597Z,54.57
2018-01-10T10:29:10.681Z,50.63
2018-01-10T10:31:39.058Z,49.97
2018-01-10T10:34:08.160Z,56.97
2018-01-10T10:36:36.510Z,48.97
2018-01-10T10:39:05.541Z,61.00
2018-01-10T10:41:33.864Z,49.23
2018-01-10T10:44:02.216Z,47.57
2018-01-10T10:46:30.574Z,58.43
2018-01-10T10:48:59.696Z,59.00
2018-01-10T10:51:28.044Z,55.63
2018-01-10T10:53:57.152Z,46.43
2018-01-10T10:56:26.320Z,49.77
2018-01-10T10:58:54.664Z,47.47
2018-01-10T11:01:23.297Z,49.30
2018-01-10T11:03:51.621Z,49.60
2018-01-10T11:06:19.943Z,55.07
2018-01-10T11:08:48.397Z,45.83
2018-01-10T11:11:16.807Z,46.03
2018-01-10T11:13:45.144Z,47.10
2018-01-10T11:16:13.521Z,50.03
2018-01-10T11:18:41.861Z,45.10
2018-01-10T11:21:10.973Z,46.60
2018-01-10T11:23:40.462Z,53.60
2018-01-10T11:26:08.943Z,44.90
2018-01-10T11:28:44.943Z,52.10
2018-01-10T11:31:13.294Z,40.43
2018-01-10T11:33:41.589Z,57.23
2018-01-10T11:36:09.953Z,53.83
2018-01-10T11:38:38.261Z,38.67
2018-01-10T11:41:06.589Z,48.07
2018-01-10T11:43:35.175Z,45.67
2018-01-10T11:46:04.257Z,49.20
2018-01-10T11:48:32.568Z,46.47
2018-01-10T11:51:00.924Z,45.73
2018-01-10T11:53:30.022Z,52.20
2018-01-10T11:55:58.346Z,43.93
2018-01-10T11:58:26.696Z,48.47
2018-01-10T12:00:55.004Z,57.53
2018-01-10T12:03:23.334Z,56.83
2018-01-10T12:05:51.876Z,44.23
2018-01-10T12:08:20.198Z,54.57
2018-01-10T12:10:49.287Z,53.80
2018-01-10T12:13:18.412Z,51.33
2018-01-10T12:15:46.717Z,49.20
2018-01-10T12:18:15.067Z,47.33
2018-01-10T12:20:43.412Z,46.13
2018-01-10T12:23:12.517Z,44.17
2018-01-10T12:25:41.586Z,52.73
2018-01-10T12:28:10.184Z,44.97
2018-01-10T12:30:38.484Z,47.20
2018-01-10T12:33:06.880Z,43.47
2018-01-10T12:38:10.470Z,43.03
2018-01-10T12:40:38.835Z,47.13
2018-01-10T12:43:07.150Z,38.30
2018-01-10T12:45:35.473Z,50.37
2018-01-10T12:48:04.115Z,44.17
2018-01-10T12:50:32.440Z,41.17
2018-01-10T12:53:00.757Z,49.50
2018-01-10T12:55:29.095Z,45.30
2018-01-10T12:57:57.428Z,37.53
2018-01-10T13:00:25.733Z,43.40
2018-01-10T13:02:54.102Z,39.77
2018-01-10T13:05:22.404Z,49.70
2018-01-10T13:07:50.700Z,46.37
2018-01-10T13:10:19.277Z,44.93
2018-01-10T13:12:49.625Z,41.30
2018-01-10T13:15:17.923Z,42.60
2018-01-10T13:17:46.271Z,40.97
2018-01-10T13:20:14.616Z,43.33
2018-01-10T13:22:42.965Z,49.03
2018-01-10T13:25:11.339Z,44.70
2018-01-10T13:27:39.672Z,44.03
2018-01-10T13:30:08.029Z,43.37
2018-01-10T13:32:36.892Z,45.20
2018-01-10T13:35:05.223Z,46.07
2018-01-10T13:37:33.598Z,47.97
2018-01-10T13:40:01.958Z,49.77
2018-01-10T13:42:30.265Z,45.20
2018-01-10T13:44:58.594Z,37.47
2018-01-10T13:47:26.954Z,42.23
2018-01-10T13:49:55.264Z,44.20
2018-01-10T13:52:23.564Z,41.90
2018-01-10T13:54:52.261Z,39.07
2018-01-10T13:57:20.597Z,40.03
2018-01-10T13:59:48.888Z,39.90
2018-01-10T14:02:17.252Z,39.43
2018-01-10T14:04:45.586Z,39.27
2018-01-10T14:07:13.904Z,45.60
2018-01-10T14:09:42.273Z,41.40
2018-01-10T14:12:10.597Z,50.40
2018-01-10T14:14:38.938Z,36.90
2018-01-10T14:17:07.565Z,46.90
2018-01-10T14:19:35.895Z,38.50
2018-01-10T14:22:04.234Z,45.30
2018-01-10T14:24:32.658Z,38.20
2018-01-10T14:27:00.970Z,43.17
2018-01-10T14:29:29.311Z,43.43
2018-01-10T14:31:57.690Z,35.93
2018-01-10T14:34:26.006Z,36.97
2018-01-10T14:36:54.360Z,33.33
2018-01-10T14:39:23.197Z,39.77
2018-01-10T14:41:51.557Z,42.53
2018-01-10T14:44:19.886Z,45.53
2018-01-10T14:46:48.232Z,35.77
2018-01-10T14:49:16.558Z,35.00
2018-01-10T14:51:44.914Z,35.90
2018-01-10T14:54:14.033Z,31.97
2018-01-10T14:56:42.340Z,36.73
2018-01-10T14:59:10.701Z,35.87
2018-01-10T15:01:40.352Z,32.50
2018-01-10T15:04:08.696Z,31.73
2018-01-10T15:06:37.119Z,48.07
2018-01-10T15:09:05.465Z,39.40
2018-01-10T15:11:33.875Z,40.23
2018-01-10T15:14:02.216Z,35.80
2018-01-10T15:16:31.330Z,40.97
2018-01-10T15:18:59.661Z,33.90
2018-01-10T15:21:27.967Z,36.53
2018-01-10T15:23:56.528Z,34.90
2018-01-10T15:26:25.058Z,34.20
2018-01-10T15:28:53.389Z,37.13
2018-01-10T15:31:21.754Z,38.83
2018-01-10T15:33:50.822Z,39.33
2018-01-10T15:36:19.197Z,32.90
2018-01-10T15:38:47.613Z,39.57
2018-01-10T15:41:16.369Z,40.40
2018-01-10T15:43:44.696Z,42.10
2018-01-10T15:46:13.446Z,39.10
2018-01-10T15:48:41.745Z,37.53
2018-01-10T15:51:10.043Z,34.97
2018-01-10T15:53:38.408Z,36.07
2018-01-10T15:56:07.873Z,34.20
2018-01-10T15:58:36.217Z,33.50
2018-01-10T16:01:04.562Z,42.97
2018-01-10T16:03:32.888Z,42.60
2018-01-10T16:06:01.245Z,37.40
2018-01-10T16:08:29.648Z,39.10
2018-01-10T16:10:57.944Z,40.20
2018-01-10T16:13:26.253Z,37.67
2018-01-10T16:15:54.590Z,35.33
2018-01-10T16:18:22.931Z,39.77
2018-01-10T16:20:51.247Z,37.30
2018-01-10T16:23:19.618Z,42.83
2018-01-10T16:25:47.946Z,40.17
2018-01-10T16:28:16.288Z,39.07
2018-01-10T16:30:44.849Z,45.40
2018-01-10T16:33:13.162Z,43.20
2018-01-10T16:35:42.252Z,45.50
2018-01-10T16:38:10.605Z,52.83
2018-01-10T16:40:38.959Z,46.97
2018-01-10T16:43:07.838Z,46.53
2018-01-10T16:45:36.156Z,46.00
2018-01-10T16:48:04.486Z,48.33
2018-01-10T16:50:32.867Z,47.17
2018-01-10T16:53:01.417Z,49.35
2018-01-10T16:55:29.761Z,50.47
2018-01-10T16:57:58.070Z,53.72
2018-01-10T17:00:26.455Z,48.47
2018-01-10T17:02:54.772Z,50.85
2018-01-10T17:05:23.089Z,46.70
2018-01-10T17:07:51.444Z,61.83
2018-01-10T17:10:19.769Z,52.47
2018-01-10T17:12:48.078Z,54.38
2018-01-10T17:15:16.677Z,55.42
2018-01-10T17:17:44.987Z,47.50
2018-01-10T17:20:13.281Z,51.97
2018-01-10T17:22:41.643Z,50.65
2018-01-10T17:25:10.051Z,49.42
2018-01-10T17:27:39.128Z,52.67
2018-01-10T17:30:07.508Z,49.80
2018-01-10T17:32:52.664Z,57.20
2018-01-10T17:35:21.415Z,53.90
2018-01-10T17:37:49.759Z,68.07
2018-01-10T17:40:18.126Z,50.95
2018-01-10T17:42:46.521Z,58.85
2018-01-10T17:45:14.850Z,63.63
2018-01-10T17:47:43.208Z,65.25
2018-01-10T17:50:11.593Z,65.50
2018-01-10T17:52:39.911Z,57.03
2018-01-10T17:55:08.252Z,60.33
2018-01-10T17:57:37.301Z,50.15
2018-01-10T18:00:05.613Z,54.45
2018-01-10T18:02:33.926Z,48.40
2018-01-10T18:05:02.269Z,52.87
2018-01-10T18:07:30.577Z,57.90
2018-01-10T18:09:58.900Z,49.60
2018-01-10T18:12:28.024Z,53.30
2018-01-10T18:14:56.374Z,52.85
2018-01-10T18:17:24.712Z,55.33
2018-01-10T18:19:53.189Z,53.47
2018-01-10T18:22:21.568Z,63.55
2018-01-10T18:24:49.877Z,61.25
2018-01-10T18:27:18.235Z,59.33
2018-01-10T18:29:46.612Z,61.65
2018-01-10T18:32:15.699Z,56.83
2018-01-10T18:34:44.052Z,53.25
2018-01-10T18:37:12.374Z,66.07
2018-01-10T18:39:40.731Z,60.70
2018-01-10T18:42:09.136Z,62.35
2018-01-10T18:44:37.500Z,51.53
2018-01-10T18:47:05.822Z,59.67
2018-01-10T18:49:34.929Z,54.20
2018-01-10T18:52:04.045Z,62.08
2018-01-10T18:54:32.432Z,67.43
2018-01-10T18:57:00.825Z,52.05
2018-01-10T18:59:29.149Z,50.75
2018-01-10T19:01:57.482Z,54.67
2018-01-10T19:04:26.187Z,58.13
2018-01-10T19:06:54.536Z,60.75
2018-01-10T19:09:22.890Z,57.45
2018-01-10T19:11:51.283Z,53.78
2018-01-10T19:14:19.683Z,72.75
2018-01-10T19:16:48.020Z,50.78
2018-01-10T19:19:17.675Z,58.22
2018-01-10T19:21:46.064Z,55.42
2018-01-10T19:24:14.388Z,59.60
2018-01-10T19:26:43.050Z,64.15
2018-01-10T19:29:11.393Z,54.72
2018-01-10T19:31:39.745Z,47.25
2018-01-10T19:34:08.743Z,55.12
2018-01-10T19:36:37.085Z,55.35
2018-01-10T19:39:05.418Z,54.00
2018-01-10T19:41:33.781Z,61.17
2018-01-10T19:44:02.141Z,54.97
2018-01-10T19:46:31.239Z,62.22
2018-01-10T19:49:00.538Z,67.53
2018-01-10T19:51:29.630Z,51.65
2018-01-10T19:53:58.756Z,60.22
2018-01-10T19:56:27.140Z,64.40
2018-01-10T19:58:55.454Z,47.58
2018-01-10T20:01:23.808Z,55.45
2018-01-10T20:03:52.184Z,58.22
2018-01-10T20:06:20.548Z,51.10
2018-01-10T20:08:48.955Z,53.72
2018-01-10T20:11:17.582Z,49.60
2018-01-10T20:13:45.937Z,56.53
2018-01-10T20:16:14.271Z,56.08
2018-01-10T20:18:42.652Z,56.30
2018-01-10T20:21:11.021Z,63.25
2018-01-10T20:23:39.387Z,68.50
2018-01-10T20:26:08.524Z,54.63
2018-01-10T20:28:36.852Z,57.95
2018-01-10T20:31:05.944Z,54.80
2018-01-10T20:33:34.951Z,52.33
2018-01-10T20:36:04.106Z,52.08
2018-01-10T20:38:32.473Z,59.22
2018-01-10T20:41:00.845Z,60.72
2018-01-10T20:43:30.211Z,57.70
2018-01-10T20:45:59.340Z,74.72
2018-01-10T20:48:27.823Z,58.65
2018-01-10T20:50:56.164Z,66.45
2018-01-10T20:53:24.524Z,63.67
2018-01-10T20:55:53.361Z,58.90
2018-01-10T20:58:21.761Z,61.30
2018-01-10T21:00:50.097Z,60.90
2018-01-10T21:03:18.500Z,62.03
2018-01-10T21:05:46.870Z,58.22
2018-01-10T21:08:15.236Z,56.35
2018-01-10T21:10:44.352Z,61.20
2018-01-10T21:13:12.709Z,65.93
2018-01-10T21:15:41.028Z,64.50
2018-01-10T21:18:09.646Z,67.93
2018-01-10T21:20:38.267Z,66.30
2018-01-10T21:23:06.651Z,61.00
2018-01-10T21:25:34.997Z,65.18
2018-01-10T21:28:03.330Z,63.85
2018-01-10T21:30:31.657Z,67.00
2018-01-10T21:33:00.009Z,58.92
2018-01-10T21:35:28.344Z,72.95
2018-01-10T21:37:56.643Z,62.20
2018-01-10T21:40:25.050Z,61.53
2018-01-10T21:42:53.393Z,61.00
2018-01-10T21:45:21.723Z,58.85
2018-01-10T21:47:50.148Z,68.87
2018-01-10T21:50:18.608Z,66.40
2018-01-10T21:52:47.725Z,76.70
2018-01-10T21:55:16.092Z,65.00
2018-01-10T21:57:44.437Z,67.78
2018-01-10T22:00:12.774Z,65.20
2018-01-10T22:02:42.235Z,58.95
2018-01-10T22:05:11.325Z,66.55
2018-01-10T22:07:39.722Z,63.28
2018-01-10T22:10:08.082Z,63.87
2018-01-10T22:12:36.392Z,67.68
2018-01-10T22:15:04.717Z,71.22
2018-01-10T22:17:33.084Z,67.07
2018-01-10T22:20:01.412Z,68.22
2018-01-10T22:22:30.533Z,65.90
2018-01-10T22:24:59.041Z,63.70
2018-01-10T22:27:27.391Z,68.68
2018-01-10T22:29:55.701Z,64.82
2018-01-10T22:32:24.056Z,53.03
2018-01-10T22:34:52.396Z,70.30
2018-01-10T22:37:20.728Z,67.50
2018-01-10T22:39:49.434Z,59.90
2018-01-10T22:42:17.764Z,61.03
2018-01-10T22:44:46.408Z,60.47
2018-01-10T22:47:15.040Z,64.37
2018-01-10T22:49:43.380Z,63.13
2018-01-10T22:52:11.671Z,68.93
2018-01-10T22:54:40.781Z,73.10
2018-01-10T22:57:09.865Z,64.53
2018-01-10T22:59:38.965Z,73.22
2018-01-10T23:02:08.091Z,63.25
2018-01-10T23:04:36.428Z,61.45
2018-01-10T23:07:04.785Z,57.90
2018-01-10T23:09:33.398Z,59.60
2018-01-10T23:12:02.510Z,57.78
2018-01-10T23:14:30.848Z,63.72
2018-01-10T23:16:59.220Z,59.35
2018-01-10T23:19:27.613Z,60.53
2018-01-10T23:21:56.014Z,69.55
2018-01-10T23:24:25.171Z,60.35
2018-01-10T23:26:53.513Z,58.83
2018-01-10T23:29:21.961Z,54.13
2018-01-10T23:31:50.694Z,59.25
2018-01-10T23:34:19.100Z,56.92
2018-01-10T23:36:47.481Z,59.20
2018-01-10T23:39:15.861Z,60.72
2018-01-10T23:41:44.299Z,49.47
2018-01-10T23:44:12.704Z,59.47
2018-01-10T23:46:41.516Z,52.03
2018-01-10T23:49:10.060Z,51.53
2018-01-10T23:51:39.220Z,51.83
2018-01-10T23:54:07.990Z,59.55
2018-01-10T23:56:36.405Z,60.85
2018-01-10T23:59:04.834Z,54.80
